aviador You're here:

KSLB Decoded Metar

STORM LAKE in IA, USA
Report Time2017-11-23 03:15:00
UTC Time2017-11-23 03:33:06
Flight Rules vfr VFR
Wind220° at 11 kt
W.Decomp.*RWY 24: 10.0 kt HW 4.5 kt LCW
RWY 17: 7.6 kt HW 7.9 kt RCW
RWY 13: 0.8 kt HW 11.0 kt RCW
W.Rank220° ranks 16
Current wind is above 220° avg. (10.4)
Visibility9999 m
Phenomena:N/A
Clouds:N/A
Expected CloudBase > 3,200 ft AGL from Temp-Dew spread
CeilingNone
Temp00°C (ISA -12)
Dew Point-8°C (55% RH)
AAT-6.9°C
QNH1015 hPa
Density Alt7 ft
Elevation1,490 ft
Report Wrong Elevation
Raw Report
KSLB 230315Z AUTO 22011KT 10SM CLR 00/M08 A2998 RMK AO2=

Extra information for KSLB:More info

Metar Taf Metar & Taf Last 4 Metars F.Rules Stats Wind Profile Meteogram Temp Stats Airport Information Weather charts Add Link Nearby VenuesMetar ALERT Operation Metar Decoded Social comments

AIRNAV info for KSLB